Terminal Aerodrome Forecast
Issued by NWS Goodland, KS

Home | Current Version | Previous Version | Text Only | Print | Product List | Glossary On
Versions: 1 2 3 4 5 6 7 8 9 10 11 12 13
316
FTUS43 KGLD 021720
TAFGLD
TAF
KGLD 021720Z 0218/0318 32012G20KT P6SM FEW250
     FM030300 26006KT P6SM SCT100
     FM030800 30010KT 6SM -SHRA SCT025 BKN050
     FM031130 32012G20KT P6SM SCT120=

USA.gov is the U.S. government's official web portal to all federal, state and local government web resources and services.